Thursday, November 23, 2017, 1:28 PM EST
Back to Local

KWVL, Waterville, Waterville Robert Lafleur Airport

Location: Waterville, ME, United States Lat: 44.533
Local Time: 1:28 PM EST (18:28 GMT) Lon: -69.683
Time Zone: US/Eastern Elev: 334 ft

Show me the last for .
Show Decoded

2017-11-23 12:56 METAR KWVL 231756Z AUTO 29007KT 10SM CLR 02/M09 A2988 RMK AO2 SLP150 T00171094
                 10017 21033 56010 FZRANO =
2017-11-23 11:56 METAR KWVL 231656Z AUTO 30007KT 10SM CLR 01/M09 A2989 RMK AO2 SLP153 T00061094
                 FZRANO =
2017-11-23 10:56 METAR KWVL 231556Z AUTO 27008KT 10SM CLR 01/M09 A2990 RMK AO2 SLP156 T00061089
                 FZRANO =
2017-11-23 09:56 METAR KWVL 231456Z AUTO 32011KT 10SM CLR M01/M08 A2991 RMK AO2 SLP160 T10061083
                 50009 FZRANO =
2017-11-23 08:56 METAR KWVL 231356Z AUTO 29004KT 10SM CLR M01/M08 A2992 RMK AO2 SLP165 T10111078
                 FZRANO =
2017-11-23 07:56 METAR KWVL 231256Z AUTO 30007KT 10SM CLR M03/M08 A2991 RMK AO2 SLP160 T10281083
                 FZRANO =
2017-11-23 06:56 METAR KWVL 231156Z AUTO 31008KT 10SM CLR M03/M08 A2988 RMK AO2 SLP151 7////
                 T10331078 10011 21033 51010 FZRANO =
2017-11-23 05:56 METAR KWVL 231056Z AUTO 30006KT 10SM CLR M03/M08 A2988 RMK AO2 SLP150 T10281078
                 FZRANO =
2017-11-23 04:56 METAR KWVL 230956Z AUTO 31007G16KT 10SM CLR M02/M07 A2986 RMK AO2 SLP142
                 T10221067 FZRANO =
2017-11-23 03:56 METAR KWVL 230856Z AUTO 31013G17KT 10SM CLR M02/M06 A2985 RMK AO2 SLP141
                 T10171061 51021 FZRANO =
2017-11-23 02:56 METAR KWVL 230756Z AUTO 30007KT 10SM CLR M01/M05 A2984 RMK AO2 SLP137 T10111050
                 FZRANO =
2017-11-23 01:56 METAR KWVL 230656Z AUTO 33004KT 10SM CLR M01/M04 A2982 RMK AO2 SLP130 T10061039
                 FZRANO =
2017-11-23 00:56 METAR KWVL 230556Z AUTO 33012G21KT 10SM CLR 01/M05 A2979 RMK AO2 PK WND
                 33026/0534 SLP119 60004 T00111050 10028 20011 53016 FZRANO =
2017-11-22 23:56 METAR KWVL 230456Z AUTO 32010G18KT 10SM BKN037 02/M03 A2977 RMK AO2 SLP112
                 T00221028 400561006 FZRANO =
2017-11-22 22:56 METAR KWVL 230356Z AUTO 33009KT 10SM SCT060 02/M01 A2975 RMK AO2 SLP105
                 T00171006 FZRANO =
2017-11-22 21:56 METAR KWVL 230256Z AUTO 33007KT 10SM OVC050 02/01 A2974 RMK AO2 SLP102 60004
                 T00220006 58002 FZRANO =
2017-11-22 20:56 METAR KWVL 230156Z AUTO 33006KT 10SM FEW031 OVC044 02/01 A2976 RMK AO2 RAE53
                 SLP107 P0002 T00220011 FZRANO =
2017-11-22 20:44 METAR KWVL 230144Z AUTO 34007KT 10SM -RA FEW009 SCT030 OVC046 02/01 A2975 RMK
                 AO2 P0002 FZRANO =
2017-11-22 20:33 METAR KWVL 230133Z AUTO 34008KT 10SM -RA SCT009 BKN026 OVC032 02/01 A2975 RMK
                 AO2 P0002 FZRANO =
2017-11-22 20:16 METAR KWVL 230116Z AUTO 33012G17KT 10SM -RA BKN009 BKN016 OVC023 02/01 A2976 RMK
                 AO2 CIG 006V011 P0002 FZRANO =
2017-11-22 19:56 METAR KWVL 230056Z AUTO 33008KT 10SM -RA SCT009 SCT014 OVC025 03/02 A2975 RMK
                 AO2 SLP106 P0002 T00280017 =
2017-11-22 19:54 METAR KWVL 230054Z AUTO 33010KT 10SM -RA SCT009 SCT014 OVC025 03/02 A2975 RMK
                 AO2 P0002 =
2017-11-22 18:56 METAR KWVL 222356Z AUTO 34007KT 10SM -RA OVC029 03/02 A2977 RMK AO2 SLP111 P0004
                 6//// T00280022 10033 20022 50002 =
2017-11-22 18:42 METAR KWVL 222342Z AUTO 34008KT 10SM -RA OVC029 03/02 A2977 RMK AO2 P0003 =
2017-11-22 17:56 METAR KWVL 222256Z AUTO 35010KT 10SM -RA OVC037 03/02 A2977 RMK AO2 SLP110 P0004
                 T00280022 =
2017-11-22 16:56 METAR KWVL 222156Z AUTO 34011KT 9SM -RA SCT004 OVC033 03/02 A2977 RMK AO2 SLP109
                 T00280022 =
2017-11-22 16:49 METAR KWVL 222149Z AUTO 33009KT 7SM RA BKN004 BKN009 OVC031 02/02 A2977 RMK AO2
                 FZRANO =
2017-11-22 16:26 METAR KWVL 222126Z AUTO 34004KT 6SM RA BR SCT004 OVC027 03/02 A2976 RMK AO2 =
2017-11-22 15:56 METAR KWVL 222056Z AUTO 01004KT 5SM RA BR OVC025 03/02 A2976 RMK AO2 SLP107
                 P0007 60024 T00280022 56020 =
2017-11-22 15:29 METAR KWVL 222029Z AUTO 01008KT 5SM RA BR SCT002 OVC025 03/02 A2977 RMK AO2
                 P0005 =
2017-11-22 15:04 METAR KWVL 222004Z AUTO 32006KT 3SM RA BR BKN002 OVC015 02/02 A2977 RMK AO2
                 P0001 FZRANO =
2017-11-22 14:56 METAR KWVL 221956Z AUTO 31006KT 3SM RA BR SCT002 OVC015 03/02 A2977 RMK AO2
                 SLP113 P0008 T00280022 =
2017-11-22 14:36 METAR KWVL 221936Z AUTO 35005KT 3SM RA BR FEW002 OVC015 02/02 A2977 RMK AO2
                 P0005 FZRANO =
2017-11-22 14:22 METAR KWVL 221922Z AUTO 02004KT 2 1/2SM RA BR SCT002 OVC013 02/02 A2978 RMK AO2
                 P0003 FZRANO =
2017-11-22 14:12 METAR KWVL 221912Z AUTO 01006KT 3SM RA BR BKN002 OVC013 02/02 A2978 RMK AO2
                 P0002 FZRANO =
2017-11-22 13:56 METAR KWVL 221856Z AUTO 01003KT 3SM -RA BR FEW002 OVC013 02/02 A2979 RMK AO2
                 SLP119 P0009 T00220022 FZRANO =
2017-11-22 13:39 METAR KWVL 221839Z AUTO 04004KT 3SM RA BR FEW002 OVC013 02/02 A2980 RMK AO2
                 P0006 FZRANO =

Support USWX by starting your Amazon purchase here.